Time;durP1;ratioP1;P1;durP2;ratioP2;P2;SDS_P1;SDS_P2;PMS_P1;PMS_P2;Temp;Humidity;BMP_temperature;BMP_pressure;BME280_temperature;BME280_humidity;BME280_pressure;Samples;Min_cycle;Max_cycle;Signal;HPM_P1;HPM_P2
2021/05/02 00:01:10;;;;;;;32.92;25.45;;;;;;;;;;5096274;28;20076;-59
2021/05/02 00:03:39;;;;;;;38.22;28.73;;;;;;;;;;5095967;28;20032;-59
2021/05/02 00:06:16;;;;;;;37.08;28.80;;;;;;;;;;5095756;28;20028;-59
2021/05/02 00:08:47;;;;;;;41.47;30.83;;;;;;;;;;5094409;28;20465;-59
2021/05/02 00:11:13;;;;;;;38.85;30.50;;;;;;;;;;5096117;28;20114;-59
2021/05/02 00:13:47;;;;;;;38.38;31.48;;;;;;;;;;5077690;28;20110;-59
2021/05/02 00:16:16;;;;;;;34.95;28.13;;;;;;;;;;5095219;28;20373;-59
2021/05/02 00:18:43;;;;;;;34.00;28.88;;;;;;;;;;5096415;28;20412;-59
2021/05/02 00:21:21;;;;;;;34.00;29.23;;;;;;;;;;5094463;28;20355;-58
2021/05/02 00:23:54;;;;;;;38.63;29.77;;;;;;;;;;5096661;28;20111;-59
2021/05/02 00:26:29;;;;;;;33.30;26.75;;;;;;;;;;5095694;28;20024;-58
2021/05/02 00:28:56;;;;;;;32.95;26.98;;;;;;;;;;5096460;28;20020;-59
2021/05/02 00:31:26;;;;;;;32.15;28.70;;;;;;;;;;5077327;28;20059;-59
2021/05/02 00:33:58;;;;;;;32.30;26.65;;;;;;;;;;5096329;28;20058;-58
2021/05/02 00:36:33;;;;;;;31.48;27.80;;;;;;;;;;5093908;28;20036;-59
2021/05/02 00:39:02;;;;;;;38.38;29.02;;;;;;;;;;5077830;28;20032;-59
2021/05/02 00:41:32;;;;;;;30.45;27.02;;;;;;;;;;5096239;28;20024;-59
2021/05/02 00:44:02;;;;;;;37.00;29.52;;;;;;;;;;5092104;28;20028;-59
2021/05/02 00:46:30;;;;;;;30.00;26.77;;;;;;;;;;5093421;28;20028;-59
2021/05/02 00:48:58;;;;;;;33.30;29.08;;;;;;;;;;5095271;28;20174;-59
2021/05/02 00:51:26;;;;;;;32.85;27.88;;;;;;;;;;5093426;28;20076;-59
2021/05/02 00:53:55;;;;;;;34.92;27.75;;;;;;;;;;5092521;28;20035;-59
2021/05/02 00:56:36;;;;;;;30.70;27.08;;;;;;;;;;5094806;28;20444;-59
2021/05/02 00:59:05;;;;;;;32.28;27.23;;;;;;;;;;5094195;28;20053;-59
2021/05/02 01:01:42;;;;;;;35.03;28.65;;;;;;;;;;5095838;28;20127;-59
2021/05/02 01:04:10;;;;;;;34.95;28.38;;;;;;;;;;5095018;28;20122;-59
2021/05/02 01:06:39;;;;;;;32.95;29.27;;;;;;;;;;5093278;28;20038;-58
2021/05/02 01:09:08;;;;;;;27.70;24.67;;;;;;;;;;5095012;28;20024;-59
2021/05/02 01:11:38;;;;;;;31.75;26.17;;;;;;;;;;5095406;28;20085;-59
2021/05/02 01:14:05;;;;;;;35.78;25.65;;;;;;;;;;5095413;28;20039;-58
2021/05/02 01:16:36;;;;;;;29.17;25.95;;;;;;;;;;5095806;28;20071;-59
2021/05/02 01:19:14;;;;;;;32.13;27.90;;;;;;;;;;5094136;28;20032;-59
2021/05/02 01:21:44;;;;;;;34.00;26.60;;;;;;;;;;5094263;28;20055;-59
2021/05/02 01:24:11;;;;;;;;;;;;;;;;;;5094852;28;20404;-59
2021/05/02 01:26:51;;;;;;;31.10;26.13;;;;;;;;;;5094055;28;19938;-59
2021/05/02 01:29:17;;;;;;;32.88;24.83;;;;;;;;;;5094804;28;20028;-59
2021/05/02 01:31:54;;;;;;;31.40;26.27;;;;;;;;;;5093064;28;20026;-59
2021/05/02 01:34:24;;;;;;;33.05;24.13;;;;;;;;;;5093092;28;20028;-59
2021/05/02 01:37:01;;;;;;;;;;;;;;;;;;;;;
2021/05/02 01:39:34;;;;;;;34.20;26.58;;;;;;;;;;5094336;28;20054;-59
2021/05/02 01:42:06;;;;;;;29.83;26.02;;;;;;;;;;5093789;28;20095;-59
2021/05/02 01:44:35;;;;;;;30.48;27.10;;;;;;;;;;5094231;28;20111;-59
2021/05/02 01:47:15;;;;;;;30.58;25.08;;;;;;;;;;5094536;28;20431;-58
2021/05/02 01:49:50;;;;;;;32.10;27.10;;;;;;;;;;5093733;28;20020;-59
2021/05/02 01:52:17;;;;;;;28.73;25.73;;;;;;;;;;5094425;28;20416;-59
2021/05/02 01:54:44;;;;;;;30.30;26.65;;;;;;;;;;5094570;28;20029;-59
2021/05/02 01:57:22;;;;;;;34.05;28.02;;;;;;;;;;5092630;28;20044;-59
2021/05/02 01:59:53;;;;;;;29.58;25.23;;;;;;;;;;5094879;28;20030;-59
2021/05/02 02:02:23;;;;;;;34.55;26.17;;;;;;;;;;5094703;28;20032;-59
2021/05/02 02:04:53;;;;;;;30.80;25.63;;;;;;;;;;5094124;28;20032;-59
2021/05/02 02:07:19;;;;;;;29.33;26.17;;;;;;;;;;5093694;28;20039;-58
2021/05/02 02:09:53;;;;;;;28.67;25.63;;;;;;;;;;5094450;28;20035;-59
2021/05/02 02:12:33;;;;;;;31.77;25.98;;;;;;;;;;5092950;28;20389;-59
2021/05/02 02:15:02;;;;;;;31.70;26.65;;;;;;;;;;5094958;28;20036;-58
2021/05/02 02:17:35;;;;;;;34.35;27.73;;;;;;;;;;5094470;28;20032;-59
2021/05/02 02:20:07;;;;;;;35.92;28.08;;;;;;;;;;5093961;28;20024;-58
2021/05/02 02:22:42;;;;;;;34.67;27.77;;;;;;;;;;5094492;28;20465;-59
2021/05/02 02:25:21;;;;;;;34.35;30.23;;;;;;;;;;5093968;28;20032;-59
2021/05/02 02:27:47;;;;;;;33.97;30.33;;;;;;;;;;5094200;28;20021;-59
2021/05/02 02:30:14;;;;;;;37.78;29.23;;;;;;;;;;5092258;28;20082;-59
2021/05/02 02:32:44;;;;;;;32.58;27.92;;;;;;;;;;5092153;28;20032;-59
2021/05/02 02:35:15;;;;;;;33.40;29.58;;;;;;;;;;5094344;28;20084;-59
2021/05/02 02:37:47;;;;;;;31.20;26.15;;;;;;;;;;5092219;28;20385;-58
2021/05/02 02:40:20;;;;;;;35.92;30.10;;;;;;;;;;5092283;28;20020;-59
2021/05/02 02:42:51;;;;;;;45.53;31.65;;;;;;;;;;5093712;28;20107;-58
2021/05/02 02:45:17;;;;;;;36.72;31.38;;;;;;;;;;5092162;28;20032;-58
2021/05/02 02:47:56;;;;;;;34.28;28.25;;;;;;;;;;5094210;28;20069;-59
2021/05/02 02:50:22;;;;;;;35.13;30.98;;;;;;;;;;5092861;28;20074;-59
2021/05/02 02:52:57;;;;;;;38.30;31.20;;;;;;;;;;5092016;28;20059;-58
2021/05/02 02:55:27;;;;;;;39.47;30.73;;;;;;;;;;5075766;28;20052;-59
2021/05/02 02:57:53;;;;;;;44.35;32.80;;;;;;;;;;5092485;28;20040;-59
2021/05/02 03:00:23;;;;;;;36.75;32.03;;;;;;;;;;5094243;28;20369;-59
2021/05/02 03:02:57;;;;;;;36.03;29.48;;;;;;;;;;5094068;28;20414;-59
2021/05/02 03:05:32;;;;;;;38.40;33.60;;;;;;;;;;5093332;28;20028;-59
2021/05/02 03:07:58;;;;;;;40.58;31.65;;;;;;;;;;5092209;28;20043;-59
2021/05/02 03:10:26;;;;;;;40.13;30.60;;;;;;;;;;5093780;28;20032;-58
2021/05/02 03:13:04;;;;;;;42.85;31.92;;;;;;;;;;5092133;28;20039;-59
2021/05/02 03:15:37;;;;;;;34.15;30.67;;;;;;;;;;5091846;28;20119;-59
2021/05/02 03:18:04;;;;;;;41.03;32.65;;;;;;;;;;5096203;28;20028;-59
2021/05/02 03:20:35;;;;;;;36.17;30.67;;;;;;;;;;5096134;28;20032;-59
2021/05/02 03:23:22;;;;;;;37.60;29.38;;;;;;;;;;5097232;28;20350;-59
2021/05/02 03:25:58;;;;;;;40.17;30.98;;;;;;;;;;5095321;28;20036;-59
2021/05/02 03:28:32;;;;;;;33.40;29.85;;;;;;;;;;5096728;28;20032;-59
2021/05/02 03:31:03;;;;;;;34.20;30.02;;;;;;;;;;5095491;28;20051;-59
2021/05/02 03:33:42;;;;;;;34.70;30.83;;;;;;;;;;5097614;28;20028;-58
2021/05/02 03:36:15;;;;;;;35.17;30.05;;;;;;;;;;5097682;28;20024;-59
2021/05/02 03:38:52;;;;;;;33.08;29.48;;;;;;;;;;5097299;28;20035;-58
2021/05/02 03:41:22;;;;;;;36.78;31.10;;;;;;;;;;5097544;28;20024;-59
2021/05/02 03:43:54;;;;;;;41.35;32.13;;;;;;;;;;5096567;28;20016;-59
2021/05/02 03:46:28;;;;;;;32.53;29.05;;;;;;;;;;5095808;28;20032;-59
2021/05/02 03:48:58;;;;;;;34.22;30.27;;;;;;;;;;5095478;28;20024;-59
2021/05/02 03:51:29;;;;;;;33.38;29.65;;;;;;;;;;5097346;28;20024;-59
2021/05/02 03:54:03;;;;;;;37.03;31.10;;;;;;;;;;5096329;28;20040;-59
2021/05/02 03:56:35;;;;;;;32.85;28.92;;;;;;;;;;5096556;28;20058;-59
2021/05/02 03:59:11;;;;;;;31.23;27.50;;;;;;;;;;5095038;28;20099;-58
2021/05/02 04:01:43;;;;;;;34.25;29.13;;;;;;;;;;5096522;28;20028;-59
2021/05/02 04:04:21;;;;;;;33.22;28.83;;;;;;;;;;5096350;28;20035;-59
2021/05/02 04:06:53;;;;;;;36.65;28.63;;;;;;;;;;5094875;28;20020;-59
2021/05/02 04:09:22;;;;;;;32.10;27.95;;;;;;;;;;5096747;28;20122;-59
2021/05/02 04:11:51;;;;;;;32.15;28.75;;;;;;;;;;5093382;28;20028;-59
2021/05/02 04:14:17;;;;;;;34.95;27.98;;;;;;;;;;5094681;28;20021;-58
2021/05/02 04:16:46;;;;;;;33.83;29.20;;;;;;;;;;5096413;28;20012;-59
2021/05/02 04:19:13;;;;;;;30.25;27.02;;;;;;;;;;5095924;28;20101;-59
2021/05/02 04:21:42;;;;;;;31.98;28.55;;;;;;;;;;5094450;28;20097;-59
2021/05/02 04:24:11;;;;;;;30.98;26.52;;;;;;;;;;5096083;28;20024;-59
2021/05/02 04:26:54;;;;;;;34.33;28.53;;;;;;;;;;5096594;28;20026;-59
2021/05/02 04:29:24;;;;;;;32.03;28.48;;;;;;;;;;5078895;28;20062;-59
2021/05/02 04:31:51;;;;;;;30.67;27.23;;;;;;;;;;5094525;28;20410;-59
2021/05/02 04:34:19;;;;;;;34.70;27.08;;;;;;;;;;5076788;28;20050;-59
2021/05/02 04:36:45;;;;;;;36.83;28.20;;;;;;;;;;5094269;28;20020;-59
2021/05/02 04:39:12;;;;;;;36.22;27.35;;;;;;;;;;5096155;28;20366;-59
2021/05/02 04:41:41;;;;;;;32.17;27.50;;;;;;;;;;5094380;28;20097;-59
2021/05/02 04:44:08;;;;;;;29.33;26.13;;;;;;;;;;5094024;28;20115;-59
2021/05/02 04:46:34;;;;;;;36.05;29.67;;;;;;;;;;5095655;28;20082;-59
2021/05/02 04:49:06;;;;;;;34.17;29.45;;;;;;;;;;5095175;28;20035;-59
2021/05/02 04:51:35;;;;;;;34.63;29.50;;;;;;;;;;5095901;28;20043;-59
2021/05/02 04:54:09;;;;;;;29.85;26.90;;;;;;;;;;5095328;28;20039;-59
2021/05/02 04:56:46;;;;;;;;;;;;;;;;;;;;;
2021/05/02 04:59:15;;;;;;;33.25;29.15;;;;;;;;;;5096052;28;20369;-59
2021/05/02 05:01:44;;;;;;;30.73;27.17;;;;;;;;;;5095609;28;20098;-59
2021/05/02 05:04:14;;;;;;;35.25;31.45;;;;;;;;;;5095204;28;20081;-59
2021/05/02 05:06:40;;;;;;;31.13;26.30;;;;;;;;;;5095227;28;20077;-59
2021/05/02 05:09:07;;;;;;;35.00;28.73;;;;;;;;;;5094531;28;20107;-59
2021/05/02 05:11:37;;;;;;;33.20;29.92;;;;;;;;;;5095226;28;20035;-59
2021/05/02 05:14:21;;;;;;;35.33;30.80;;;;;;;;;;5095095;28;20072;-59
2021/05/02 05:16:55;;;;;;;33.75;29.95;;;;;;;;;;5094946;28;20024;-59
2021/05/02 05:19:24;;;;;;;31.65;28.35;;;;;;;;;;5094745;28;20103;-59
2021/05/02 05:21:57;;;;;;;37.40;29.48;;;;;;;;;;5094915;28;20032;-59
2021/05/02 05:24:26;;;;;;;32.45;29.20;;;;;;;;;;5094668;28;20024;-59
2021/05/02 05:26:52;;;;;;;35.25;29.95;;;;;;;;;;5094826;28;20020;-59
2021/05/02 05:29:19;;;;;;;32.35;29.13;;;;;;;;;;5095412;28;20051;-59
2021/05/02 05:31:45;;;;;;;33.97;30.60;;;;;;;;;;5094407;28;20020;-59
2021/05/02 05:34:16;;;;;;;32.05;28.63;;;;;;;;;;5093194;28;20044;-59
2021/05/02 05:36:43;;;;;;;37.90;31.20;;;;;;;;;;5093660;28;20032;-59
2021/05/02 05:39:19;;;;;;;34.63;30.98;;;;;;;;;;5094317;28;20024;-59
2021/05/02 05:42:04;;;;;;;34.08;30.42;;;;;;;;;;5093660;28;20028;-59
2021/05/02 05:44:32;;;;;;;32.10;28.42;;;;;;;;;;5094864;28;20031;-59
2021/05/02 05:47:01;;;;;;;36.13;30.67;;;;;;;;;;5095108;28;20112;-59
2021/05/02 05:49:28;;;;;;;35.28;31.45;;;;;;;;;;5094993;28;20060;-59
2021/05/02 05:51:57;;;;;;;36.20;30.77;;;;;;;;;;5094873;28;20031;-59
2021/05/02 05:54:26;;;;;;;36.72;31.23;;;;;;;;;;5094432;28;20032;-59
2021/05/02 05:57:08;;;;;;;34.08;30.15;;;;;;;;;;5075726;28;20404;-59
2021/05/02 05:59:38;;;;;;;32.10;28.70;;;;;;;;;;5094620;28;20020;-59
2021/05/02 06:02:04;;;;;;;36.63;29.63;;;;;;;;;;5094248;28;20031;-59
2021/05/02 06:04:31;;;;;;;30.15;27.05;;;;;;;;;;5092868;28;20032;-59
2021/05/02 06:07:01;;;;;;;30.70;27.48;;;;;;;;;;5094195;28;20077;-59
2021/05/02 06:09:27;;;;;;;33.70;30.27;;;;;;;;;;5094177;28;20028;-59
2021/05/02 06:11:53;;;;;;;31.58;27.75;;;;;;;;;;5094041;28;20028;-59
2021/05/02 06:14:19;;;;;;;33.38;29.85;;;;;;;;;;5092566;28;20032;-59
2021/05/02 06:16:46;;;;;;;35.05;28.95;;;;;;;;;;5092644;28;20039;-59
2021/05/02 06:19:17;;;;;;;31.02;27.90;;;;;;;;;;5092449;28;20465;-59
2021/05/02 06:21:43;;;;;;;;;;;;;;;;;;5094147;28;20458;-59
2021/05/02 06:24:09;;;;;;;31.58;27.92;;;;;;;;;;5094433;28;19908;-59
2021/05/02 06:26:38;;;;;;;33.13;28.90;;;;;;;;;;5092683;28;20051;-59
2021/05/02 06:29:06;;;;;;;32.38;28.38;;;;;;;;;;5093947;28;20028;-59
2021/05/02 06:31:33;;;;;;;29.48;26.33;;;;;;;;;;5093897;28;20028;-59
2021/05/02 06:34:04;;;;;;;27.95;24.70;;;;;;;;;;5094284;28;20044;-59
2021/05/02 06:36:30;;;;;;;29.92;26.33;;;;;;;;;;5092276;28;20027;-59
2021/05/02 06:39:02;;;;;;;27.77;24.95;;;;;;;;;;5092435;28;20085;-59
2021/05/02 06:41:31;;;;;;;29.33;25.15;;;;;;;;;;5092475;28;20423;-59
2021/05/02 06:43:57;;;;;;;28.83;25.80;;;;;;;;;;5092723;28;20035;-59
2021/05/02 06:46:30;;;;;;;29.25;25.80;;;;;;;;;;5094283;28;20028;-59
2021/05/02 06:49:07;;;;;;;27.52;24.65;;;;;;;;;;5092404;28;20032;-59
2021/05/02 06:51:34;;;;;;;29.15;25.65;;;;;;;;;;5094984;28;20373;-59
2021/05/02 06:54:06;;;;;;;26.67;23.98;;;;;;;;;;5097314;28;20100;-59
2021/05/02 06:56:36;;;;;;;27.52;24.30;;;;;;;;;;5096430;28;20051;-59
2021/05/02 06:59:02;;;;;;;26.60;23.92;;;;;;;;;;5097358;28;20102;-59
2021/05/02 07:01:28;;;;;;;26.48;23.85;;;;;;;;;;5096674;28;20078;-59
2021/05/02 07:04:03;;;;;;;24.63;22.08;;;;;;;;;;5096736;28;20035;-59
2021/05/02 07:06:30;;;;;;;24.73;21.52;;;;;;;;;;5097746;28;20091;-59
2021/05/02 07:08:59;;;;;;;26.13;19.98;;;;;;;;;;5097209;28;20034;-59
2021/05/02 07:11:25;;;;;;;24.55;21.98;;;;;;;;;;5096015;28;20030;-59
2021/05/02 07:13:54;;;;;;;23.20;20.95;;;;;;;;;;5097373;28;20060;-59
2021/05/02 07:16:21;;;;;;;24.02;20.67;;;;;;;;;;5095858;28;20388;-59
2021/05/02 07:18:53;;;;;;;25.05;20.70;;;;;;;;;;5095751;28;20389;-59
2021/05/02 07:21:23;;;;;;;24.13;21.65;;;;;;;;;;5097902;28;20032;-59
2021/05/02 07:23:50;;;;;;;25.45;20.55;;;;;;;;;;5097656;28;20516;-59
2021/05/02 07:26:23;;;;;;;26.00;23.30;;;;;;;;;;5097791;28;20432;-59
2021/05/02 07:28:55;;;;;;;24.38;21.05;;;;;;;;;;5095658;28;20062;-59
2021/05/02 07:31:27;;;;;;;24.02;21.50;;;;;;;;;;5097158;28;20036;-59
2021/05/02 07:33:53;;;;;;;23.35;20.95;;;;;;;;;;5096504;28;20084;-59
2021/05/02 07:36:22;;;;;;;23.17;20.80;;;;;;;;;;5096726;28;20028;-59
2021/05/02 07:38:49;;;;;;;23.05;20.85;;;;;;;;;;5097281;28;20036;-59
2021/05/02 07:41:18;;;;;;;19.98;17.92;;;;;;;;;;5096710;28;20031;-59
2021/05/02 07:43:47;;;;;;;22.40;18.42;;;;;;;;;;5095467;28;20398;-59
2021/05/02 07:46:13;;;;;;;16.38;14.85;;;;;;;;;;5096254;28;20412;-59
2021/05/02 07:48:43;;;;;;;20.30;16.58;;;;;;;;;;5097294;28;20028;-59
2021/05/02 07:51:12;;;;;;;18.02;16.10;;;;;;;;;;5095444;28;20035;-59
2021/05/02 07:53:39;;;;;;;17.02;15.27;;;;;;;;;;5096852;28;20282;-59
2021/05/02 07:56:07;;;;;;;21.13;15.68;;;;;;;;;;5096183;28;20111;-59
2021/05/02 07:58:39;;;;;;;18.08;16.35;;;;;;;;;;5095377;28;20034;-59
2021/05/02 08:01:06;;;;;;;16.70;14.77;;;;;;;;;;5097425;28;20105;-59
2021/05/02 08:03:32;;;;;;;17.92;15.60;;;;;;;;;;5096530;28;20522;-59
2021/05/02 08:06:01;;;;;;;19.13;17.25;;;;;;;;;;5095062;28;20040;-59
2021/05/02 08:08:28;;;;;;;17.05;15.35;;;;;;;;;;5096344;28;20381;-59
2021/05/02 08:10:57;;;;;;;17.75;15.88;;;;;;;;;;5078228;28;20028;-59
2021/05/02 08:13:25;;;;;;;16.73;14.98;;;;;;;;;;5096406;28;20071;-58
2021/05/02 08:15:54;;;;;;;16.08;14.52;;;;;;;;;;5096001;28;20060;-58
2021/05/02 08:18:20;;;;;;;17.13;15.13;;;;;;;;;;5094875;28;20461;-59
2021/05/02 08:20:48;;;;;;;15.73;14.18;;;;;;;;;;5094529;28;20047;-59
2021/05/02 08:23:15;;;;;;;16.55;14.95;;;;;;;;;;5094759;28;20035;-58
2021/05/02 08:25:44;;;;;;;16.73;14.68;;;;;;;;;;5096517;28;20031;-59
2021/05/02 08:28:10;;;;;;;14.95;13.55;;;;;;;;;;5095910;28;20017;-58
2021/05/02 08:30:37;;;;;;;16.40;14.52;;;;;;;;;;5095687;28;20042;-58
2021/05/02 08:33:05;;;;;;;16.63;14.90;;;;;;;;;;5094329;28;20036;-58
2021/05/02 08:35:35;;;;;;;17.20;15.57;;;;;;;;;;5095876;28;20078;-58
2021/05/02 08:38:04;;;;;;;16.48;14.77;;;;;;;;;;5094338;28;20024;-58
2021/05/02 08:40:33;;;;;;;16.42;14.85;;;;;;;;;;5096059;28;20020;-58
2021/05/02 08:43:09;;;;;;;16.63;14.48;;;;;;;;;;5096216;28;20489;-58
2021/05/02 08:45:36;;;;;;;17.98;14.18;;;;;;;;;;5095346;28;20081;-58
2021/05/02 08:48:02;;;;;;;16.35;14.60;;;;;;;;;;5094599;28;20381;-58
2021/05/02 08:50:28;;;;;;;18.05;15.27;;;;;;;;;;5095557;28;20385;-58
2021/05/02 08:52:55;;;;;;;14.82;13.35;;;;;;;;;;5095455;28;20039;-58
2021/05/02 08:55:21;;;;;;;14.38;12.88;;;;;;;;;;5095159;28;20067;-59
2021/05/02 08:57:50;;;;;;;15.65;14.15;;;;;;;;;;5096086;28;20414;-59
2021/05/02 09:00:16;;;;;;;14.55;12.60;;;;;;;;;;5093987;28;20031;-59
2021/05/02 09:02:52;;;;;;;14.07;12.63;;;;;;;;;;5093875;28;20028;-59
2021/05/02 09:05:19;;;;;;;15.00;13.57;;;;;;;;;;5095788;28;20032;-59
2021/05/02 09:07:48;;;;;;;14.10;12.35;;;;;;;;;;5093956;28;20028;-59
2021/05/02 09:10:15;;;;;;;13.13;11.82;;;;;;;;;;5095875;28;20047;-59
2021/05/02 09:12:43;;;;;;;13.90;12.48;;;;;;;;;;5093885;28;20028;-59
2021/05/02 09:15:22;;;;;;;12.85;11.70;;;;;;;;;;5094197;28;20114;-59
2021/05/02 09:20:45;;;;;;;13.93;12.52;;;;;;;;;;5093609;28;20032;-59
2021/05/02 09:23:12;;;;;;;11.48;10.38;;;;;;;;;;5094820;28;20032;-59
2021/05/02 09:25:45;;;;;;;17.25;13.43;;;;;;;;;;5095726;28;20020;-59
2021/05/02 09:28:11;;;;;;;14.07;12.88;;;;;;;;;;5076583;28;20020;-59
2021/05/02 09:30:38;;;;;;;14.23;12.93;;;;;;;;;;5095374;28;20024;-59
2021/05/02 09:33:04;;;;;;;14.02;12.13;;;;;;;;;;5094680;28;20028;-59
2021/05/02 09:35:32;;;;;;;14.68;12.75;;;;;;;;;;5076342;28;20429;-58
2021/05/02 09:38:14;;;;;;;14.52;12.95;;;;;;;;;;5094206;28;20024;-59
2021/05/02 09:41:07;;;;;;;12.45;11.15;;;;;;;;;;5093696;28;20455;-59
2021/05/02 09:43:36;;;;;;;13.73;12.32;;;;;;;;;;5091555;28;20036;-59
2021/05/02 09:46:32;;;;;;;11.63;10.45;;;;;;;;;;5094598;28;20024;-59
2021/05/02 09:49:00;;;;;;;15.10;12.77;;;;;;;;;;5094164;28;20024;-60
2021/05/02 09:51:30;;;;;;;14.30;11.35;;;;;;;;;;5094371;28;20024;-58
2021/05/02 09:54:06;;;;;;;13.52;12.30;;;;;;;;;;5094903;28;20037;-58
2021/05/02 09:56:37;;;;;;;14.88;13.35;;;;;;;;;;5092495;28;20113;-58
2021/05/02 09:59:04;;;;;;;14.45;12.10;;;;;;;;;;5076856;28;20030;-58
2021/05/02 10:01:30;;;;;;;13.35;12.05;;;;;;;;;;5092590;28;20536;-58
2021/05/02 10:03:59;;;;;;;16.05;13.57;;;;;;;;;;5093790;28;20028;-58
2021/05/02 10:06:33;;;;;;;15.30;13.63;;;;;;;;;;5093451;28;20024;-58
2021/05/02 10:09:02;;;;;;;15.50;12.48;;;;;;;;;;5092872;28;20032;-59
2021/05/02 10:11:29;;;;;;;15.18;12.90;;;;;;;;;;5093898;28;20036;-58
2021/05/02 10:14:01;;;;;;;17.40;12.77;;;;;;;;;;5092452;28;20032;-58
2021/05/02 10:16:29;;;;;;;14.13;12.13;;;;;;;;;;5093980;28;20024;-58
2021/05/02 10:18:55;;;;;;;12.75;11.45;;;;;;;;;;5094050;28;20069;-58
2021/05/02 10:21:24;;;;;;;13.10;11.80;;;;;;;;;;5092457;28;20074;-59
2021/05/02 10:23:56;;;;;;;16.35;14.52;;;;;;;;;;5093636;28;20039;-58
2021/05/02 10:26:25;;;;;;;14.48;12.98;;;;;;;;;;5094671;28;20052;-59
2021/05/02 10:28:51;;;;;;;15.88;14.32;;;;;;;;;;5092134;28;20020;-58
2021/05/02 10:31:17;;;;;;;16.27;11.15;;;;;;;;;;5092896;28;20031;-59
2021/05/02 10:33:44;;;;;;;13.00;11.68;;;;;;;;;;5093694;28;20028;-58
2021/05/02 10:36:11;;;;;;;17.00;11.07;;;;;;;;;;5093372;28;20035;-59
2021/05/02 10:38:47;;;;;;;13.73;12.23;;;;;;;;;;5093762;28;20020;-59
2021/05/02 10:41:27;;;;;;;13.65;12.45;;;;;;;;;;5093812;28;20020;-59
2021/05/02 10:43:54;;;;;;;17.33;13.73;;;;;;;;;;5092888;28;20404;-58
2021/05/02 10:46:38;;;;;;;13.80;12.50;;;;;;;;;;5092414;28;20270;-58
2021/05/02 10:49:04;;;;;;;14.98;13.30;;;;;;;;;;5094209;28;20107;-59
2021/05/02 10:51:31;;;;;;;17.17;15.32;;;;;;;;;;5093179;28;20089;-59
2021/05/02 10:54:08;;;;;;;14.35;12.85;;;;;;;;;;5092121;28;20096;-59
2021/05/02 10:56:54;;;;;;;11.95;10.85;;;;;;;;;;5092565;28;20083;-59
2021/05/02 10:59:22;;;;;;;12.35;11.05;;;;;;;;;;5092718;28;20119;-59
2021/05/02 11:01:49;;;;;;;10.77;9.65;;;;;;;;;;5092290;28;20032;-59
2021/05/02 11:04:15;;;;;;;11.82;10.73;;;;;;;;;;5093579;28;20081;-59
2021/05/02 11:06:41;;;;;;;15.50;11.27;;;;;;;;;;5093550;28;20025;-58
2021/05/02 11:09:16;;;;;;;12.93;11.73;;;;;;;;;;5092652;28;20032;-58
2021/05/02 11:11:45;;;;;;;12.00;10.85;;;;;;;;;;5092790;28;20033;-59
2021/05/02 11:16:40;;;;;;;11.75;10.45;;;;;;;;;;5093539;28;20487;-59
2021/05/02 11:19:07;;;;;;;11.55;10.45;;;;;;;;;;5092235;28;20028;-60
2021/05/02 11:21:55;;;;;;;18.67;16.77;;;;;;;;;;5092064;28;20115;-60
2021/05/02 11:24:23;;;;;;;10.85;9.95;;;;;;;;;;5094052;28;20035;-60
2021/05/02 11:29:22;;;;;;;13.15;11.85;;;;;;;;;;5093339;28;20077;-60
2021/05/02 11:31:48;;;;;;;23.77;11.23;;;;;;;;;;5092137;28;20032;-60
2021/05/02 11:34:14;;;;;;;11.52;10.32;;;;;;;;;;5092427;28;20028;-60
2021/05/02 11:36:41;;;;;;;13.52;12.07;;;;;;;;;;5093629;28;20020;-60
2021/05/02 11:39:08;;;;;;;11.73;10.48;;;;;;;;;;5096673;28;20031;-60
2021/05/02 11:41:53;;;;;;;9.98;8.88;;;;;;;;;;5096207;28;20024;-59
2021/05/02 11:44:19;;;;;;;15.43;8.57;;;;;;;;;;5095540;28;20399;-59
2021/05/02 11:46:45;;;;;;;8.82;8.00;;;;;;;;;;5096874;28;20020;-59
2021/05/02 11:49:14;;;;;;;10.38;9.38;;;;;;;;;;5095551;28;20122;-59
2021/05/02 11:51:43;;;;;;;11.02;9.93;;;;;;;;;;5095427;28;20024;-59
2021/05/02 11:54:12;;;;;;;14.85;12.07;;;;;;;;;;5096683;28;20036;-59
2021/05/02 11:56:40;;;;;;;14.75;13.18;;;;;;;;;;5096587;28;20104;-59
2021/05/02 11:59:12;;;;;;;17.00;14.77;;;;;;;;;;5096588;28;20028;-59
2021/05/02 12:01:43;;;;;;;16.98;15.27;;;;;;;;;;5095835;28;20032;-59
2021/05/02 12:04:10;;;;;;;14.52;13.15;;;;;;;;;;5097019;28;20039;-59
2021/05/02 12:06:37;;;;;;;15.98;14.38;;;;;;;;;;5096009;28;20541;-59
2021/05/02 12:09:16;;;;;;;15.70;14.18;;;;;;;;;;5095194;28;20028;-59
2021/05/02 12:11:43;;;;;;;16.98;15.27;;;;;;;;;;5097152;28;20331;-59
2021/05/02 12:14:09;;;;;;;16.33;14.80;;;;;;;;;;5096149;28;20035;-59
2021/05/02 12:16:35;;;;;;;14.85;13.35;;;;;;;;;;5096427;28;20057;-59
2021/05/02 12:19:02;;;;;;;15.77;14.38;;;;;;;;;;5095273;28;20538;-59
2021/05/02 12:21:30;;;;;;;20.98;15.20;;;;;;;;;;5096168;28;20128;-59
2021/05/02 12:24:05;;;;;;;15.30;13.80;;;;;;;;;;5095246;28;20099;-59
2021/05/02 12:26:32;;;;;;;12.75;11.45;;;;;;;;;;5094558;28;20020;-59
2021/05/02 12:29:00;;;;;;;12.98;11.73;;;;;;;;;;5095498;28;20416;-59
2021/05/02 12:31:26;;;;;;;11.57;10.43;;;;;;;;;;5095896;28;20054;-59
2021/05/02 12:33:52;;;;;;;12.50;11.38;;;;;;;;;;5095940;28;20033;-59
2021/05/02 12:36:18;;;;;;;10.40;8.90;;;;;;;;;;5078022;28;20019;-59
2021/05/02 12:38:45;;;;;;;9.60;8.70;;;;;;;;;;5096366;28;20028;-59
2021/05/02 12:41:18;;;;;;;7.65;6.95;;;;;;;;;;5096144;28;20028;-59
2021/05/02 12:43:48;;;;;;;9.95;7.95;;;;;;;;;;5094474;28;20023;-59
2021/05/02 12:46:33;;;;;;;7.47;6.70;;;;;;;;;;5095099;28;20058;-59
2021/05/02 12:49:13;;;;;;;7.75;6.80;;;;;;;;;;5093803;28;20036;-59
2021/05/02 12:51:39;;;;;;;7.33;6.63;;;;;;;;;;5095707;28;20035;-59
2021/05/02 12:54:06;;;;;;;7.18;6.07;;;;;;;;;;5095694;28;20123;-59
2021/05/02 12:56:32;;;;;;;7.70;6.53;;;;;;;;;;5095514;28;20374;-59
2021/05/02 12:59:00;;;;;;;9.10;7.50;;;;;;;;;;5095461;28;20040;-58
2021/05/02 13:01:29;;;;;;;6.88;6.07;;;;;;;;;;5093999;28;20461;-58
2021/05/02 13:03:57;;;;;;;7.75;6.20;;;;;;;;;;5095314;28;20032;-58
2021/05/02 13:06:24;;;;;;;7.63;6.45;;;;;;;;;;5093713;28;20028;-58
2021/05/02 13:08:53;;;;;;;8.40;6.13;;;;;;;;;;5094238;28;20020;-59
2021/05/02 13:11:22;;;;;;;9.75;8.75;;;;;;;;;;5095039;28;20028;-58
2021/05/02 13:13:48;;;;;;;10.13;8.23;;;;;;;;;;5093802;28;20081;-58
2021/05/02 13:16:14;;;;;;;11.43;9.07;;;;;;;;;;5095134;28;20025;-58
2021/05/02 13:18:40;;;;;;;12.50;7.55;;;;;;;;;;5093774;28;20115;-58
2021/05/02 13:21:06;;;;;;;11.50;8.25;;;;;;;;;;5095580;28;20024;-58
2021/05/02 13:23:32;;;;;;;8.82;7.95;;;;;;;;;;5094362;28;20043;-58
2021/05/02 13:26:17;;;;;;;10.43;9.02;;;;;;;;;;5094859;28;20058;-58
2021/05/02 13:29:02;;;;;;;10.93;9.20;;;;;;;;;;5093592;28;20027;-58
2021/05/02 13:31:43;;;;;;;9.00;8.15;;;;;;;;;;5095561;28;20103;-58
2021/05/02 13:34:11;;;;;;;8.95;7.72;;;;;;;;;;5094366;28;20385;-59
2021/05/02 13:36:37;;;;;;;10.45;9.45;;;;;;;;;;5094644;28;20024;-59
2021/05/02 13:39:06;;;;;;;8.85;8.05;;;;;;;;;;5095230;28;20027;-58
2021/05/02 13:41:34;;;;;;;8.82;8.07;;;;;;;;;;5094211;28;20028;-59
2021/05/02 13:44:07;;;;;;;10.05;9.13;;;;;;;;;;5092766;28;20028;-58
2021/05/02 13:46:33;;;;;;;9.68;8.77;;;;;;;;;;5094483;28;20032;-58
2021/05/02 13:48:59;;;;;;;9.77;8.77;;;;;;;;;;5092790;28;20020;-58
2021/05/02 13:51:26;;;;;;;8.57;7.85;;;;;;;;;;5092942;28;20020;-58
2021/05/02 13:53:53;;;;;;;8.50;7.68;;;;;;;;;;5093019;28;20028;-58
2021/05/02 13:56:19;;;;;;;9.45;8.55;;;;;;;;;;5094245;28;20077;-58
2021/05/02 13:58:46;;;;;;;9.65;8.50;;;;;;;;;;5094332;28;20386;-58
2021/05/02 14:01:14;;;;;;;9.05;8.13;;;;;;;;;;5094598;28;20020;-58
2021/05/02 14:03:41;;;;;;;9.23;8.32;;;;;;;;;;5092915;28;20035;-58
2021/05/02 14:06:07;;;;;;;9.07;8.15;;;;;;;;;;5094437;28;20027;-58
2021/05/02 14:08:34;;;;;;;8.68;7.85;;;;;;;;;;5092404;28;20039;-58
2021/05/02 14:11:00;;;;;;;10.38;9.25;;;;;;;;;;5093219;28;20038;-58
2021/05/02 14:13:26;;;;;;;11.50;9.30;;;;;;;;;;5093611;28;20035;-58
2021/05/02 14:15:55;;;;;;;11.20;8.63;;;;;;;;;;5092721;28;20105;-58
2021/05/02 14:18:21;;;;;;;10.52;8.38;;;;;;;;;;5092292;28;20477;-58
2021/05/02 14:20:47;;;;;;;9.80;7.85;;;;;;;;;;5094137;28;20048;-58
2021/05/02 14:23:13;;;;;;;9.50;7.32;;;;;;;;;;5092793;28;20028;-58
2021/05/02 14:25:41;;;;;;;8.98;6.95;;;;;;;;;;5093253;28;20089;-58
2021/05/02 14:28:10;;;;;;;8.20;7.45;;;;;;;;;;5093923;28;20033;-58
2021/05/02 14:30:36;;;;;;;6.80;6.18;;;;;;;;;;5093966;28;20032;-58
2021/05/02 14:33:03;;;;;;;9.90;5.95;;;;;;;;;;5093740;28;20070;-58
2021/05/02 14:35:31;;;;;;;7.40;5.50;;;;;;;;;;5093760;28;20024;-58
2021/05/02 14:37:57;;;;;;;7.95;7.15;;;;;;;;;;5093415;28;20020;-58
2021/05/02 14:40:23;;;;;;;6.97;6.28;;;;;;;;;;5093792;28;20529;-58
2021/05/02 14:42:49;;;;;;;9.50;7.35;;;;;;;;;;5093719;28;20111;-58
2021/05/02 14:45:18;;;;;;;8.95;7.90;;;;;;;;;;5092508;28;20031;-58
2021/05/02 14:47:45;;;;;;;9.02;7.75;;;;;;;;;;5092724;28;20035;-58